Minneapolis Flying Cloud, MN

9:07 PM CST on December 05, 2016 (GMT -0600)
Flying Cloud | | Change Station

Elev 906 ft 44.83 °N, 93.46 °W | Updated 3 minutes ago

Overcast
Overcast
40 °F
Feels Like 32 °F
N
15
Wind Variable Wind from SSE
Gusts 20 mph

Today
High -- | Low -- °F
--% Chance of Precip.
Yesterday
High -- | Low -- °F
Precip. -- in
Pressure 29.64 in
Visibility 10.0 miles
Clouds Mostly Cloudy 2500 ft
Overcast 3300 ft
Windchill 32 °F
Dew Point 33 °F
Humidity 77%
Rainfall 0.00 in
Snow Depth Not available.
7:36 AM 4:33 PM
Waxing Crescent, 37% visible
SPECI KFCM 060304Z AUTO 16013G17KT 10SM BKN025 OVC033 04/01 A2964 RMK AO2 T00440006
Pressure 29.64 in
Visibility 10.0 miles
Clouds Mostly Cloudy 2500 ft
Overcast 3300 ft
Windchill 32 °F
Dew Point 33 °F
Humidity 77%
Rainfall 0.00 in
Snow Depth Not available.
7:36 AM 4:33 PM
Waxing Crescent, 37% visible
SPECI KFCM 060304Z AUTO 16013G17KT 10SM BKN025 OVC033 04/01 A2964 RMK AO2 T00440006

10-Day Weather Forecast

Almanac

Astronomy

Dec. 05, 2016 Rise Set
Actual Time
Civil Twilight
Nautical Twilight
Astronomical Twilight
Moon
Length of Visible Light
Length of Day
Tomorrow will be .
, % of the Moon is Illuminated

Today's Extremes

State Highs State Lows

Community

WunderPhotos

Upload Photos

1,955,914 photos uploaded!

WunderBlog® & News

Nearby

Air Quality

  Air Quality AQ Index Pollutant
Not available.

Snow Depth

Station Depth Elevation

Earthquake Activity

City Distance Mag. Time & Date
Minimum magnitude displayed is 2.5.

Coastal Water Temperatures

Place Temperature

Stations

Nearby Weather Stations

Station Location Temp. Windchill Dew Point Humidity Wind Precip. Elev Updated Type
                   

Watches & Warnings

There are currently no watches in effect.